Aeroporto :
LOGIN :

Iscrizione | Disclaimer

   EN    FR    IT 

 










Sommario :    VFR   VFR Marginale   IFR   IFR Intensivo   IFR Molto Intensivo
Visibilità : 
Base nubi : 
>= 8 km
>= 3000ft
5 / 8 km
1000 / 3000 ft
1500m / 5 km
500 / 1000 ft
800 / 1500m
200 / 500 ft
< 800m
< 200 ft
Simboli :   Temporali  Nebbia  Neve Forte  Precipitazioni Forti  Vento > 20 kt
SIGMETs :   Varie  Temporali  Ghiacco  Turbolenza  Onda orograficha  Ceneri Vulcaniche






- Altitudine del aeroporto : 2776 ft
- Codice IATA : VLL


LEVD - Valladolid

ULTIMO METAR :
  • 272300Z AUTO 25009KT CAVOK 05/03 Q1024

METARs OBSOLETI :
  • 272230Z AUTO 26010KT CAVOK 06/03 Q1024
  • 272200Z AUTO 26008KT CAVOK 07/03 Q1024

TAF TAF LEVD
Valido dal 28 a 00 ore il 29 a 00 ore UTC


272300Z 2800/2824 27010KT CAVOK TX19/2816Z TN02/2806Z
BECMG 2801/2803 VRB05KT
PROB40
TEMPO 2802/2808 1200 BCFG BKN004



MetMap, La meteo Aeronautica in un colpo d'occhio ! - Copyright ORBIFLY Dicembre 2007 - Disclaimer

ORBIFLY MET'MAP TEAM :

Programmazione e sviluppo : Alexandra Zaïnal
Concezione : Baudouin d'Aumeries
Aiuto per la programmazione : Marc-Olivier Méhu
Supporto tecnico e logistico : Manuel Goepfert
Aiuto per la traduzione : Arnaldo La Scala

Contatto : metmap@orbifly.com




FONTI E CREDITI :

   NOAA